Time;durP1;ratioP1;P1;durP2;ratioP2;P2;SDS_P1;SDS_P2;PMS_P1;PMS_P2;Temp;Humidity;BMP_temperature;BMP_pressure;BME280_temperature;BME280_humidity;BME280_pressure;Samples;Min_cycle;Max_cycle;Signal;HPM_P1;HPM_P2
2023/12/15 00:01:52;;;;;;;13.10;5.90;;;;;;;3.34;100.00;101746.81;5004890;28;20267;-74
2023/12/15 00:04:18;;;;;;;16.07;6.00;;;;;;;3.39;100.00;101737.53;5022828;28;20900;-73
2023/12/15 00:06:44;;;;;;;13.67;5.93;;;;;;;3.46;100.00;101747.59;5020793;28;20504;-73
2023/12/15 00:09:11;;;;;;;14.57;5.63;;;;;;;3.45;100.00;101745.78;4998112;28;20208;-74
2023/12/15 00:11:37;;;;;;;12.77;5.33;;;;;;;3.40;100.00;101747.22;5015131;28;20196;-73
2023/12/15 00:14:04;;;;;;;11.00;5.50;;;;;;;3.41;100.00;101754.25;5020345;28;20215;-73
2023/12/15 00:16:30;;;;;;;12.53;5.70;;;;;;;3.35;100.00;101762.63;5000753;28;20212;-73
2023/12/15 00:18:57;;;;;;;17.00;5.70;;;;;;;3.39;100.00;101762.00;5010784;28;20291;-73
2023/12/15 00:21:24;;;;;;;14.27;6.53;;;;;;;3.44;100.00;101762.31;5010015;28;20207;-73
2023/12/15 00:23:50;;;;;;;15.50;6.37;;;;;;;3.52;100.00;101763.69;4999290;28;20252;-74
2023/12/15 00:26:17;;;;;;;15.77;6.73;;;;;;;3.64;100.00;101764.50;5012717;28;20197;-73
2023/12/15 00:28:43;;;;;;;13.63;6.60;;;;;;;3.67;100.00;101772.53;5005139;28;20250;-72
2023/12/15 00:31:09;;;;;;;15.60;6.13;;;;;;;3.73;100.00;101767.69;5005227;28;20204;-73
2023/12/15 00:33:36;;;;;;;12.43;5.67;;;;;;;3.83;100.00;101770.88;5007188;28;20232;-73
2023/12/15 00:36:02;;;;;;;18.00;6.40;;;;;;;3.88;100.00;101775.56;5012041;28;20204;-74
2023/12/15 00:38:29;;;;;;;13.30;5.80;;;;;;;3.88;100.00;101770.34;5009184;28;20287;-73
2023/12/15 00:40:55;;;;;;;12.70;5.70;;;;;;;3.93;100.00;101770.63;5021984;28;20291;-73
2023/12/15 00:43:22;;;;;;;11.97;5.10;;;;;;;3.93;100.00;101774.16;5005580;28;20286;-73
2023/12/15 00:45:48;;;;;;;15.97;6.53;;;;;;;4.09;100.00;101771.69;5009841;28;20204;-73
2023/12/15 00:48:15;;;;;;;17.10;6.33;;;;;;;4.08;100.00;101769.88;5006687;28;20448;-74
2023/12/15 00:50:41;;;;;;;14.47;6.20;;;;;;;4.13;100.00;101774.50;5011314;28;20884;-73
2023/12/15 00:53:08;;;;;;;12.93;5.83;;;;;;;4.14;100.00;101768.44;5009295;28;20255;-73
2023/12/15 00:55:34;;;;;;;13.50;5.90;;;;;;;4.13;100.00;101769.25;5011541;28;20208;-73
2023/12/15 00:58:00;;;;;;;14.63;6.40;;;;;;;4.07;100.00;101775.94;5005363;28;20584;-73
2023/12/15 01:00:27;;;;;;;14.63;5.83;;;;;;;4.02;100.00;101779.06;5011809;28;20522;-73
2023/12/15 01:02:53;;;;;;;13.70;5.87;;;;;;;3.97;100.00;101786.63;5002265;28;20226;-73
2023/12/15 01:05:20;;;;;;;13.53;5.87;;;;;;;3.97;100.00;101798.81;5012209;28;20263;-73
2023/12/15 01:07:46;;;;;;;17.57;6.90;;;;;;;3.95;100.00;101809.22;5010238;28;20200;-73
2023/12/15 01:10:15;;;;;;;16.30;6.20;;;;;;;3.95;100.00;101819.69;5007036;28;20251;-73
2023/12/15 01:12:41;;;;;;;13.13;5.93;;;;;;;3.95;100.00;101811.84;5009871;28;20213;-74
2023/12/15 01:15:08;;;;;;;14.67;6.60;;;;;;;3.95;100.00;101818.78;5011901;28;20208;-73
2023/12/15 01:17:35;;;;;;;13.87;5.50;;;;;;;3.99;100.00;101816.47;5023739;28;20226;-73
2023/12/15 01:20:02;;;;;;;12.40;6.43;;;;;;;4.07;100.00;101819.59;5010121;28;20636;-73
2023/12/15 01:22:28;;;;;;;12.30;5.73;;;;;;;4.11;100.00;101815.44;5002509;28;20205;-73
2023/12/15 01:24:55;;;;;;;15.07;6.10;;;;;;;4.15;100.00;101818.34;5008695;28;20689;-73
2023/12/15 01:27:21;;;;;;;15.73;6.93;;;;;;;4.20;100.00;101821.25;5011999;28;20207;-73
2023/12/15 01:29:47;;;;;;;15.70;6.37;;;;;;;4.19;100.00;101820.34;5013647;28;20207;-73
2023/12/15 01:32:14;;;;;;;14.03;5.90;;;;;;;4.21;100.00;101828.28;5015149;28;20214;-74
2023/12/15 01:34:40;;;;;;;16.10;7.07;;;;;;;4.24;100.00;101836.34;5010459;28;20228;-73
2023/12/15 01:37:07;;;;;;;14.13;6.37;;;;;;;4.25;100.00;101835.53;5010298;28;20226;-73
2023/12/15 01:39:33;;;;;;;13.53;6.73;;;;;;;4.26;100.00;101843.50;5021403;28;20204;-74
2023/12/15 01:42:00;;;;;;;14.73;6.20;;;;;;;4.26;100.00;101843.50;5010408;28;20336;-74
2023/12/15 01:44:26;;;;;;;15.57;6.77;;;;;;;4.40;100.00;101850.53;5013335;28;20606;-73
2023/12/15 01:46:53;;;;;;;14.00;6.23;;;;;;;4.40;100.00;101847.91;5013617;28;20251;-72
2023/12/15 01:49:19;;;;;;;14.57;6.43;;;;;;;4.43;100.00;101856.75;5005717;28;20296;-73
2023/12/15 01:51:46;;;;;;;13.07;5.93;;;;;;;4.44;100.00;101854.22;5002373;28;20218;-73
2023/12/15 01:54:12;;;;;;;12.07;5.83;;;;;;;4.54;100.00;101856.59;5012959;28;20226;-73
2023/12/15 01:56:39;;;;;;;14.47;5.73;;;;;;;4.61;100.00;101852.63;5010641;28;20225;-74
2023/12/15 01:59:05;;;;;;;14.37;6.27;;;;;;;4.61;100.00;101842.13;5009678;28;20236;-73
2023/12/15 02:01:32;;;;;;;14.43;5.87;;;;;;;4.59;100.00;101851.63;5012874;28;20221;-73
2023/12/15 02:03:58;;;;;;;18.17;7.30;;;;;;;4.49;100.00;101846.66;5011718;28;20228;-72
2023/12/15 02:06:24;;;;;;;12.80;6.50;;;;;;;4.42;100.00;101855.84;5027112;28;20700;-73
2023/12/15 02:08:52;;;;;;;13.70;5.77;;;;;;;4.45;100.00;101857.75;5006539;28;20695;-74
2023/12/15 02:11:18;;;;;;;16.80;6.70;;;;;;;4.39;100.00;101859.16;5009837;28;20283;-74
2023/12/15 02:13:45;;;;;;;15.43;6.23;;;;;;;4.47;100.00;101866.63;5012011;28;20219;-73
2023/12/15 02:16:11;;;;;;;14.77;6.23;;;;;;;4.48;100.00;101873.69;5013011;28;20227;-73
2023/12/15 02:18:38;;;;;;;12.00;6.03;;;;;;;4.51;100.00;101868.63;5013517;28;20693;-72
2023/12/15 02:21:05;;;;;;;13.40;6.20;;;;;;;4.39;100.00;101869.66;5008601;28;20275;-72
2023/12/15 02:23:31;;;;;;;17.40;6.53;;;;;;;4.38;100.00;101870.47;5008765;28;20514;-73
2023/12/15 02:25:58;;;;;;;12.57;6.17;;;;;;;4.42;100.00;101870.69;5003790;28;20211;-73
2023/12/15 02:28:24;;;;;;;11.40;6.13;;;;;;;4.35;100.00;101874.63;5014266;28;20204;-73
2023/12/15 02:30:51;;;;;;;17.87;6.53;;;;;;;4.35;100.00;101869.38;5018569;28;20570;-73
2023/12/15 02:33:17;;;;;;;17.10;6.57;;;;;;;4.32;100.00;101864.84;5017169;28;20658;-73
2023/12/15 02:35:47;;;;;;;14.17;5.63;;;;;;;4.28;100.00;101869.81;5014541;28;20458;-73
2023/12/15 02:38:18;;;;;;;14.93;6.27;;;;;;;4.29;100.00;101869.91;5023430;28;20972;-73
2023/12/15 02:40:44;;;;;;;18.23;6.53;;;;;;;4.29;100.00;101882.13;5015260;28;20215;-73
2023/12/15 02:43:11;;;;;;;14.93;6.17;;;;;;;4.35;100.00;101875.53;5012671;28;20315;-74
2023/12/15 02:45:37;;;;;;;14.60;6.73;;;;;;;4.33;100.00;101885.00;5012545;28;20202;-73
2023/12/15 02:48:04;;;;;;;14.27;6.17;;;;;;;4.29;100.00;101883.00;5006955;28;20581;-73
2023/12/15 02:50:30;;;;;;;14.37;6.33;;;;;;;4.24;100.00;101886.16;5014217;28;20217;-73
2023/12/15 02:52:57;;;;;;;16.27;6.20;;;;;;;4.19;100.00;101890.22;5015865;28;20672;-73
2023/12/15 02:55:23;;;;;;;15.30;7.40;;;;;;;4.13;100.00;101885.50;5015079;28;20201;-73
2023/12/15 02:57:50;;;;;;;14.30;6.30;;;;;;;4.14;100.00;101904.75;5008185;28;20229;-74
2023/12/15 03:00:16;;;;;;;13.53;6.13;;;;;;;3.88;100.00;101897.84;5008030;28;20238;-73
2023/12/15 03:02:43;;;;;;;13.77;6.30;;;;;;;3.62;100.00;101897.09;5012355;28;20207;-72
2023/12/15 03:05:09;;;;;;;11.80;5.50;;;;;;;3.36;100.00;101897.06;5013654;28;20283;-73
2023/12/15 03:07:36;;;;;;;12.17;5.83;;;;;;;3.15;100.00;101896.53;5013422;28;20661;-73
2023/12/15 03:10:03;;;;;;;13.53;6.17;;;;;;;3.01;100.00;101898.22;5010996;28;20201;-72
2023/12/15 03:12:30;;;;;;;11.27;5.90;;;;;;;2.93;100.00;101891.56;5011326;28;20621;-72
2023/12/15 03:14:58;;;;;;;14.43;6.27;;;;;;;2.93;100.00;101896.81;5010480;28;20584;-73
2023/12/15 03:17:24;;;;;;;16.40;6.60;;;;;;;2.90;100.00;101900.91;5013259;28;20680;-73
2023/12/15 03:19:51;;;;;;;12.77;5.67;;;;;;;2.87;100.00;101903.34;5012696;28;20582;-73
2023/12/15 03:22:17;;;;;;;12.47;5.57;;;;;;;2.92;100.00;101905.44;5012775;28;20200;-73
2023/12/15 03:24:44;;;;;;;12.67;5.97;;;;;;;2.99;100.00;101912.00;5012676;28;20222;-73
2023/12/15 03:27:10;;;;;;;16.80;6.77;;;;;;;3.04;100.00;101914.13;5013763;28;20283;-74
2023/12/15 03:29:37;;;;;;;16.87;6.57;;;;;;;3.19;100.00;101915.97;5014095;28;20230;-73
2023/12/15 03:32:03;;;;;;;16.70;6.67;;;;;;;3.27;100.00;101927.88;5009137;28;20713;-73
2023/12/15 03:34:30;;;;;;;16.00;6.37;;;;;;;3.39;100.00;101926.06;5007666;28;20227;-73
2023/12/15 03:36:57;;;;;;;16.60;6.60;;;;;;;3.45;100.00;101924.75;5010180;28;20205;-73
2023/12/15 03:39:23;;;;;;;20.50;6.60;;;;;;;3.60;100.00;101934.44;5006718;28;20290;-72
2023/12/15 03:41:49;;;;;;;15.47;6.67;;;;;;;3.76;100.00;101926.78;5028303;28;20842;-73
2023/12/15 03:44:16;;;;;;;13.83;6.53;;;;;;;3.75;100.00;101933.75;5007079;28;20225;-73
2023/12/15 03:46:42;;;;;;;15.33;6.00;;;;;;;3.71;100.00;101930.81;5006726;28;20299;-74
2023/12/15 03:49:08;;;;;;;14.37;5.93;;;;;;;3.66;100.00;101933.16;5017401;28;20200;-73
2023/12/15 03:51:36;;;;;;;16.10;7.10;;;;;;;3.67;100.00;101940.19;5006349;28;20266;-73
2023/12/15 03:54:02;;;;;;;13.70;6.70;;;;;;;3.81;100.00;101953.28;5009901;28;20223;-74
2023/12/15 03:56:29;;;;;;;17.87;6.70;;;;;;;3.90;100.00;101956.50;5007915;28;20615;-73
2023/12/15 03:58:55;;;;;;;14.47;6.10;;;;;;;3.87;100.00;101949.34;5005909;28;20285;-73
2023/12/15 04:01:22;;;;;;;15.43;5.80;;;;;;;3.78;100.00;101954.91;5015503;28;20270;-74
2023/12/15 04:03:48;;;;;;;14.23;5.73;;;;;;;3.80;100.00;101957.63;5004627;28;20224;-73
2023/12/15 04:06:15;;;;;;;11.73;5.80;;;;;;;3.80;100.00;101960.25;5014618;28;20210;-73
2023/12/15 04:08:42;;;;;;;12.37;6.03;;;;;;;3.82;100.00;101966.50;5004837;28;20222;-73
2023/12/15 04:11:08;;;;;;;13.30;5.20;;;;;;;3.78;100.00;101967.09;5014903;28;20200;-73
2023/12/15 04:13:36;;;;;;;18.07;6.10;;;;;;;3.69;100.00;101967.41;5010261;28;20231;-73
2023/12/15 04:16:04;;;;;;;14.60;6.33;;;;;;;3.70;100.00;101970.94;5015730;28;20312;-73
2023/12/15 04:18:32;;;;;;;14.10;5.63;;;;;;;3.65;100.00;101969.72;5005519;28;20231;-73
2023/12/15 04:21:00;;;;;;;15.13;5.73;;;;;;;3.63;100.00;101973.94;5014551;28;20211;-73
2023/12/15 04:23:28;;;;;;;12.10;5.73;;;;;;;3.77;100.00;101981.00;5027380;28;20220;-73
2023/12/15 04:25:57;;;;;;;12.43;5.40;;;;;;;3.77;100.00;101981.91;5022146;28;20218;-73
2023/12/15 04:28:25;;;;;;;12.57;5.87;;;;;;;3.91;100.00;101993.28;5020702;28;20291;-74
2023/12/15 04:30:52;;;;;;;12.80;5.90;;;;;;;3.94;100.00;101984.72;5027719;28;20291;-72
2023/12/15 04:33:18;;;;;;;12.57;5.07;;;;;;;3.93;100.00;101983.81;5005256;28;20652;-73
2023/12/15 04:35:44;;;;;;;14.13;6.37;;;;;;;3.93;100.00;101983.81;5013918;28;20213;-72
2023/12/15 04:38:11;;;;;;;13.70;6.23;;;;;;;3.97;100.00;101982.28;5008161;28;20216;-73
2023/12/15 04:40:37;;;;;;;12.40;5.47;;;;;;;3.95;100.00;101982.19;5009625;28;20211;-73
2023/12/15 04:43:04;;;;;;;12.40;5.60;;;;;;;3.88;100.00;101981.69;5004214;28;20259;-73
2023/12/15 04:45:30;;;;;;;15.50;5.87;;;;;;;3.87;100.00;101990.38;5008287;28;20201;-73
2023/12/15 04:47:57;;;;;;;17.00;6.33;;;;;;;3.82;100.00;101995.31;5007458;28;20405;-73
2023/12/15 04:50:23;;;;;;;13.40;5.70;;;;;;;3.79;100.00;102008.22;5011999;28;20203;-73
2023/12/15 04:52:50;;;;;;;14.83;6.60;;;;;;;3.74;100.00;102007.91;5025550;28;20270;-73
2023/12/15 04:55:16;;;;;;;13.70;5.60;;;;;;;3.73;100.00;102016.56;5021816;28;20598;-74
2023/12/15 04:57:42;;;;;;;12.03;5.80;;;;;;;3.72;100.00;102014.75;5008621;28;20230;-74
2023/12/15 05:00:12;;;;;;;12.97;6.20;;;;;;;3.70;100.00;102026.84;5006164;28;20208;-74
2023/12/15 05:02:38;;;;;;;16.97;6.90;;;;;;;3.84;100.00;102029.47;5012044;28;20215;-73
2023/12/15 05:05:07;;;;;;;12.67;6.13;;;;;;;3.92;100.00;102025.66;5008676;28;20200;-73
2023/12/15 05:07:33;;;;;;;14.23;5.57;;;;;;;4.01;100.00;102021.03;5009761;28;20208;-74
2023/12/15 05:10:00;;;;;;;13.33;5.53;;;;;;;4.04;100.00;102031.72;5018183;28;20214;-74
2023/12/15 05:12:26;;;;;;;15.03;6.60;;;;;;;4.04;100.00;102034.34;5009670;28;21853;-73
2023/12/15 05:14:53;;;;;;;15.33;6.07;;;;;;;4.06;100.00;102030.09;5010574;28;20220;-73
2023/12/15 05:17:19;;;;;;;12.10;5.83;;;;;;;4.13;100.00;102039.28;5010309;28;20204;-73
2023/12/15 05:19:46;;;;;;;13.20;5.37;;;;;;;4.17;100.00;102041.28;5011555;28;20271;-73
2023/12/15 05:22:12;;;;;;;14.97;6.17;;;;;;;4.13;100.00;102039.28;5008885;28;20196;-73
2023/12/15 05:24:38;;;;;;;12.60;5.90;;;;;;;4.14;100.00;102038.47;5015388;28;20319;-72
2023/12/15 05:27:05;;;;;;;13.57;6.53;;;;;;;4.16;100.00;102047.34;5008241;28;20196;-73
2023/12/15 05:29:31;;;;;;;12.27;5.80;;;;;;;4.19;100.00;102048.44;5003853;28;20205;-73
2023/12/15 05:31:58;;;;;;;13.40;5.50;;;;;;;4.17;100.00;102054.41;5003065;28;20646;-73
2023/12/15 05:34:24;;;;;;;12.00;5.60;;;;;;;4.12;100.00;102059.34;5006219;28;20248;-73
2023/12/15 05:36:51;;;;;;;14.37;6.37;;;;;;;4.11;100.00;102065.38;5008325;28;20204;-73
2023/12/15 05:39:17;;;;;;;14.40;5.27;;;;;;;4.06;100.00;102072.03;5006843;28;20224;-73
2023/12/15 05:41:43;;;;;;;10.40;5.03;;;;;;;3.98;100.00;102066.25;5002942;28;20212;-73
2023/12/15 05:44:11;;;;;;;12.00;5.63;;;;;;;3.92;100.00;102071.09;5004274;28;20228;-73
2023/12/15 05:46:41;;;;;;;9.97;4.70;;;;;;;3.87;100.00;102085.63;4997598;28;20204;-73
2023/12/15 05:49:11;;;;;;;13.23;5.43;;;;;;;3.78;100.00;102083.28;5004501;28;20230;-74
2023/12/15 05:51:38;;;;;;;13.83;5.57;;;;;;;3.71;100.00;102080.16;5006823;28;20696;-72
2023/12/15 05:54:05;;;;;;;12.77;5.00;;;;;;;3.68;100.00;102090.44;5018840;23;20233;-76
2023/12/15 05:56:31;;;;;;;11.40;5.47;;;;;;;3.68;100.00;102093.06;4984197;28;20205;-75
2023/12/15 05:58:58;;;;;;;10.70;4.80;;;;;;;3.74;100.00;102099.63;5004758;28;20225;-78
2023/12/15 06:01:24;;;;;;;12.03;5.10;;;;;;;3.74;100.00;102094.38;4982185;28;20200;-79
2023/12/15 06:03:52;;;;;;;9.90;5.30;;;;;;;3.85;100.00;102104.66;4997796;28;20223;-74
2023/12/15 06:06:19;;;;;;;10.33;5.30;;;;;;;3.88;100.00;102105.78;5007008;28;20227;-75
2023/12/15 06:08:45;;;;;;;11.27;5.33;;;;;;;3.89;100.00;102098.81;5004951;28;20211;-74
2023/12/15 06:11:12;;;;;;;14.47;5.60;;;;;;;3.92;100.00;102106.88;5021709;28;20201;-79
2023/12/15 06:13:39;;;;;;;9.73;5.03;;;;;;;3.89;100.00;102109.31;5021783;28;20225;-75
2023/12/15 06:16:15;;;;;;;9.60;5.17;;;;;;;3.85;100.00;102095.09;5006591;28;20232;-74
2023/12/15 06:18:42;;;;;;;13.50;4.93;;;;;;;3.90;100.00;102096.31;5003218;28;20585;-74
2023/12/15 06:21:08;;;;;;;11.30;5.33;;;;;;;3.87;100.00;102084.72;5008017;28;20251;-74
2023/12/15 06:23:35;;;;;;;11.50;5.43;;;;;;;3.90;100.00;102098.94;5011724;28;20328;-74
2023/12/15 06:26:01;;;;;;;10.10;5.17;;;;;;;3.86;100.00;102096.00;5012829;28;20209;-75
2023/12/15 06:28:28;;;;;;;10.40;5.33;;;;;;;3.86;100.00;102104.75;5008892;28;20270;-76
2023/12/15 06:30:54;;;;;;;11.30;5.40;;;;;;;3.70;100.00;102094.97;5007708;28;20209;-75
2023/12/15 06:33:20;;;;;;;10.13;5.37;;;;;;;3.76;100.00;102108.47;5002101;28;20229;-76
2023/12/15 06:35:47;;;;;;;9.10;4.90;;;;;;;3.65;100.00;102098.09;5006704;28;20205;-74
2023/12/15 06:38:13;;;;;;;14.50;5.47;;;;;;;3.53;100.00;102099.84;5010196;28;20722;-74
2023/12/15 06:40:40;;;;;;;10.93;5.47;;;;;;;3.42;100.00;102099.09;5012396;28;20213;-74
2023/12/15 06:43:07;;;;;;;12.80;6.00;;;;;;;3.45;100.00;102115.94;4997152;28;20291;-74
2023/12/15 06:45:33;;;;;;;11.23;5.63;;;;;;;3.70;100.00;102121.16;5026747;28;20287;-74
2023/12/15 06:47:59;;;;;;;12.37;5.43;;;;;;;3.84;100.00;102124.72;5007197;28;20204;-74
2023/12/15 06:50:26;;;;;;;11.87;5.13;;;;;;;3.90;100.00;102134.72;5013632;28;20213;-73
2023/12/15 06:52:53;;;;;;;9.73;4.73;;;;;;;3.86;100.00;102146.69;5024232;28;20290;-74
2023/12/15 06:55:19;;;;;;;11.70;4.63;;;;;;;3.78;100.00;102147.88;5025866;28;20259;-77
2023/12/15 06:57:46;;;;;;;13.80;5.17;;;;;;;3.77;100.00;102143.44;5008444;28;20204;-74
2023/12/15 07:00:13;;;;;;;12.93;5.27;;;;;;;3.74;100.00;102146.78;5009945;28;20351;-74
2023/12/15 07:02:39;;;;;;;11.77;5.40;;;;;;;3.82;100.00;102147.28;5010484;28;20201;-74
2023/12/15 07:05:06;;;;;;;14.13;5.27;;;;;;;3.82;100.00;102149.00;5008800;28;20594;-74
2023/12/15 07:07:33;;;;;;;12.33;5.40;;;;;;;3.80;100.00;102142.75;5010385;28;20282;-73
2023/12/15 07:09:59;;;;;;;11.50;4.80;;;;;;;3.84;100.00;102147.41;5024955;28;20243;-74
2023/12/15 07:12:26;;;;;;;12.37;5.53;;;;;;;3.82;100.00;102142.06;5008531;28;20665;-75
2023/12/15 07:14:52;;;;;;;11.10;4.80;;;;;;;3.75;100.00;102137.19;5004060;28;20220;-73
2023/12/15 07:17:19;;;;;;;9.77;4.87;;;;;;;3.88;100.00;102146.81;5030644;28;20207;-74
2023/12/15 07:19:46;;;;;;;12.00;4.93;;;;;;;3.93;100.00;102148.03;5014780;28;20306;-75
2023/12/15 07:22:13;;;;;;;12.53;5.30;;;;;;;3.83;100.00;102137.72;5010441;28;20208;-74
2023/12/15 07:24:42;;;;;;;10.77;5.43;;;;;;;3.70;100.00;102146.47;5010875;28;20859;-74
2023/12/15 07:27:09;;;;;;;10.80;4.83;;;;;;;3.52;100.00;102163.50;5006035;28;20214;-76
2023/12/15 07:29:36;;;;;;;12.60;5.53;;;;;;;3.58;100.00;102174.41;5009477;28;20204;-75
2023/12/15 07:32:02;;;;;;;11.23;4.63;;;;;;;3.58;100.00;102166.53;5007245;28;20690;-74
2023/12/15 07:34:29;;;;;;;11.20;5.23;;;;;;;3.52;100.00;102177.50;5008895;28;20306;-76
2023/12/15 07:36:55;;;;;;;11.90;4.90;;;;;;;3.30;100.00;102185.56;5007835;28;20281;-74
2023/12/15 07:39:22;;;;;;;13.10;4.83;;;;;;;3.19;100.00;102190.81;5005864;28;20307;-73
2023/12/15 07:41:49;;;;;;;12.23;5.00;;;;;;;3.22;100.00;102194.59;5006209;28;20196;-74
2023/12/15 07:44:16;;;;;;;10.73;5.13;;;;;;;3.24;100.00;102200.84;5012511;28;20224;-73
2023/12/15 07:46:43;;;;;;;10.60;4.40;;;;;;;3.40;100.00;102218.56;5015008;28;20286;-74
2023/12/15 07:49:10;;;;;;;12.07;5.00;;;;;;;3.57;100.00;102222.34;5009316;28;20196;-77
2023/12/15 07:51:37;;;;;;;8.60;4.40;;;;;;;3.69;100.00;102229.38;5009481;28;20226;-75
2023/12/15 07:54:03;;;;;;;10.63;5.37;;;;;;;3.81;100.00;102221.47;5010654;28;20235;-74
2023/12/15 07:56:30;;;;;;;8.93;5.07;;;;;;;3.98;100.00;102227.88;5010598;28;20201;-74
2023/12/15 07:58:56;;;;;;;10.10;5.17;;;;;;;4.08;100.00;102223.41;5008217;28;20220;-76
2023/12/15 08:01:24;;;;;;;11.00;5.23;;;;;;;4.21;100.00;102217.25;5009721;28;20684;-74
2023/12/15 08:03:50;;;;;;;11.93;6.47;;;;;;;4.31;100.00;102222.31;5007697;28;20224;-74
2023/12/15 08:06:17;;;;;;;11.10;5.87;;;;;;;4.48;100.00;102227.81;5014073;28;20551;-76
2023/12/15 08:08:45;;;;;;;10.30;5.37;;;;;;;4.59;100.00;102227.72;5011180;28;20657;-74
2023/12/15 08:11:13;;;;;;;11.07;5.47;;;;;;;4.56;100.00;102219.66;5015022;28;20202;-74
2023/12/15 08:13:40;;;;;;;12.57;5.63;;;;;;;4.72;100.00;102227.72;5019380;28;20278;-74
2023/12/15 08:16:09;;;;;;;10.97;5.50;;;;;;;4.79;100.00;102230.75;5013243;28;20228;-75
2023/12/15 08:18:41;;;;;;;11.67;5.20;;;;;;;4.86;100.00;102222.50;5026078;28;20220;-75
2023/12/15 08:21:07;;;;;;;10.63;5.80;;;;;;;4.84;100.00;102219.78;5009040;28;20682;-73
2023/12/15 08:23:34;;;;;;;10.20;5.57;;;;;;;4.80;100.00;102208.94;5011922;28;20247;-75
2023/12/15 08:26:00;;;;;;;10.03;5.30;;;;;;;4.95;100.00;102229.25;5013812;28;20258;-75
2023/12/15 08:28:27;;;;;;;9.40;4.90;;;;;;;5.10;100.00;102216.19;5015037;28;20210;-76
2023/12/15 08:30:54;;;;;;;12.00;5.37;;;;;;;5.22;100.00;102219.63;5015896;28;20201;-76
2023/12/15 08:33:20;;;;;;;9.83;5.63;;;;;;;5.44;100.00;102211.38;5009871;28;20226;-75
2023/12/15 08:35:47;;;;;;;12.00;5.57;;;;;;;5.62;100.00;102222.16;5029749;28;20293;-75
2023/12/15 08:38:13;;;;;;;9.80;6.07;;;;;;;5.62;100.00;102207.31;5010782;28;20207;-76
2023/12/15 08:40:40;;;;;;;11.53;5.87;;;;;;;5.73;100.00;102218.47;5009656;28;20669;-72
2023/12/15 08:43:06;;;;;;;11.87;5.70;;;;;;;5.92;100.00;102234.59;5009759;28;20475;-70
2023/12/15 08:45:32;;;;;;;12.37;5.47;;;;;;;5.96;100.00;102244.47;5013879;28;20572;-74
2023/12/15 08:47:59;;;;;;;14.23;5.97;;;;;;;6.04;100.00;102244.97;5011597;28;20695;-72
2023/12/15 08:50:26;;;;;;;10.73;5.33;;;;;;;6.06;100.00;102256.50;5024831;28;20317;-73
2023/12/15 08:52:52;;;;;;;12.97;5.80;;;;;;;6.15;100.00;102254.41;5010712;28;20617;-71
2023/12/15 08:55:19;;;;;;;12.40;5.33;;;;;;;6.14;100.00;102252.59;5015771;28;20350;-72
2023/12/15 08:57:45;;;;;;;10.93;5.17;;;;;;;6.06;100.00;102253.88;5018067;28;20211;-73
2023/12/15 09:00:12;;;;;;;11.77;5.83;;;;;;;6.10;100.00;102253.25;5016205;28;20230;-72
2023/12/15 09:02:38;;;;;;;10.93;5.60;;;;;;;6.12;100.00;102251.59;5012182;28;20560;-74
2023/12/15 09:05:05;;;;;;;10.73;5.37;;;;;;;6.17;100.00;102257.16;5017832;28;20742;-71
2023/12/15 09:07:51;;;;;;;10.30;4.97;;;;;;;6.21;100.00;102248.63;5012597;28;20207;-72
2023/12/15 09:10:19;;;;;;;11.20;5.37;;;;;;;6.27;100.00;102260.41;5023583;28;20304;-73
2023/12/15 09:12:46;;;;;;;10.10;5.37;;;;;;;6.33;100.00;102266.84;5007045;28;20279;-74
2023/12/15 09:15:12;;;;;;;9.93;5.37;;;;;;;6.33;100.00;102278.28;5014603;28;20210;-75
2023/12/15 09:17:41;;;;;;;10.73;5.63;;;;;;;6.36;100.00;102281.09;5027782;28;20205;-73
2023/12/15 09:20:12;;;;;;;11.73;5.57;;;;;;;6.33;100.00;102290.53;5017779;28;20223;-76
2023/12/15 09:22:40;;;;;;;14.97;5.93;;;;;;;6.45;100.00;102293.94;5010171;28;20215;-76
2023/12/15 09:25:07;;;;;;;11.17;5.97;;;;;;;6.31;100.00;102285.19;5035462;28;20322;-71
2023/12/15 09:27:33;;;;;;;9.97;5.10;;;;;;;6.35;100.00;102286.28;5009584;28;20233;-73
2023/12/15 09:30:00;;;;;;;9.67;4.97;;;;;;;6.31;100.00;102308.88;5007633;28;20645;-73
2023/12/15 09:32:27;;;;;;;11.63;5.87;;;;;;;6.31;100.00;102324.66;5007693;28;20288;-74
2023/12/15 09:34:54;;;;;;;14.07;5.53;;;;;;;6.24;100.00;102323.38;5007027;28;20259;-72
2023/12/15 09:37:20;;;;;;;10.57;5.67;;;;;;;6.30;100.00;102314.94;5008177;28;20206;-72
2023/12/15 09:39:46;;;;;;;13.33;5.80;;;;;;;6.41;100.00;102323.53;5008067;28;20699;-74
2023/12/15 09:42:13;;;;;;;11.97;6.00;;;;;;;6.53;100.00;102319.91;5006895;28;20206;-73
2023/12/15 09:44:39;;;;;;;10.23;5.30;;;;;;;6.53;100.00;102322.53;5007585;28;20307;-73
2023/12/15 09:47:28;;;;;;;10.73;6.07;;;;;;;6.57;100.00;102323.63;5006812;28;20214;-73
2023/12/15 09:50:01;;;;;;;11.17;5.60;;;;;;;6.66;100.00;102323.25;5007780;28;20669;-73
2023/12/15 09:52:32;;;;;;;12.43;5.87;;;;;;;6.77;100.00;102328.34;5008492;28;20246;-72
2023/12/15 09:54:59;;;;;;;13.43;5.83;;;;;;;6.90;100.00;102327.38;5007393;28;20660;-73
2023/12/15 09:57:26;;;;;;;11.77;6.30;;;;;;;6.89;100.00;102322.94;5011008;28;20683;-73
2023/12/15 09:59:52;;;;;;;12.60;5.80;;;;;;;6.93;100.00;102334.53;5009522;28;20246;-74
2023/12/15 10:02:19;;;;;;;11.23;5.70;;;;;;;6.95;100.00;102333.81;5011285;28;20211;-73
2023/12/15 10:04:47;;;;;;;11.10;5.80;;;;;;;6.84;100.00;102330.56;5009964;28;20314;-73
2023/12/15 10:07:13;;;;;;;11.50;6.10;;;;;;;6.97;100.00;102355.88;5002733;28;20207;-73
2023/12/15 10:09:39;;;;;;;11.47;5.90;;;;;;;7.04;100.00;102346.63;5014044;28;20212;-76
2023/12/15 10:12:12;;;;;;;10.63;5.43;;;;;;;6.95;100.00;102353.97;5009343;28;20213;-77
2023/12/15 10:14:39;;;;;;;11.17;6.10;;;;;;;6.95;100.00;102353.97;5009865;28;20228;-73
2023/12/15 10:17:10;;;;;;;10.03;5.60;;;;;;;6.90;100.00;102345.81;5027043;28;20196;-74
2023/12/15 10:19:36;;;;;;;11.00;5.30;;;;;;;6.86;100.00;102355.25;5005890;28;20220;-73
2023/12/15 10:22:05;;;;;;;11.50;5.67;;;;;;;6.80;100.00;102354.84;5011268;28;20254;-74
2023/12/15 10:24:33;;;;;;;9.80;5.57;;;;;;;6.79;100.00;102354.78;5009992;28;20767;-72
2023/12/15 10:27:02;;;;;;;10.57;5.80;;;;;;;6.81;100.00;102356.72;5011099;28;20576;-74
2023/12/15 10:29:29;;;;;;;12.10;5.97;;;;;;;6.80;100.00;102364.50;5011198;28;20233;-73
2023/12/15 10:31:55;;;;;;;11.30;5.83;;;;;;;6.81;100.00;102367.25;5009907;28;20289;-74
2023/12/15 10:34:23;;;;;;;13.33;6.53;;;;;;;6.65;100.00;102372.38;5009179;28;20638;-76
2023/12/15 10:36:51;;;;;;;12.43;6.50;;;;;;;6.68;100.00;102371.66;5011887;28;20208;-74
2023/12/15 10:39:19;;;;;;;13.43;6.37;;;;;;;6.76;100.00;102373.03;5010931;28;20246;-74
2023/12/15 10:41:46;;;;;;;11.13;6.00;;;;;;;6.85;100.00;102377.13;5005103;28;20673;-74
2023/12/15 10:44:13;;;;;;;14.50;6.53;;;;;;;7.00;100.00;102389.41;5009409;28;20242;-74
2023/12/15 10:46:42;;;;;;;13.00;6.40;;;;;;;7.17;100.00;102399.19;5007241;28;20219;-70
2023/12/15 10:49:10;;;;;;;13.80;6.67;;;;;;;7.31;100.00;102393.03;5012139;28;20391;-71
2023/12/15 10:51:40;;;;;;;13.47;7.20;;;;;;;7.53;100.00;102395.19;5014476;28;20224;-72
2023/12/15 10:54:08;;;;;;;12.83;6.40;;;;;;;7.66;100.00;102400.38;5012858;28;20659;-71
2023/12/15 10:56:37;;;;;;;13.13;6.60;;;;;;;7.87;100.00;102390.09;5016744;28;20208;-71
2023/12/15 10:59:07;;;;;;;12.13;6.33;;;;;;;7.84;100.00;102382.94;5030261;28;20254;-72
2023/12/15 11:01:38;;;;;;;10.90;6.03;;;;;;;7.99;100.00;102382.88;5011181;28;20215;-71
2023/12/15 11:04:21;;;;;;;10.37;5.40;;;;;;;8.20;100.00;102385.81;5019846;28;20221;-72
2023/12/15 11:06:49;;;;;;;10.10;5.27;;;;;;;8.25;100.00;102383.41;5011702;28;20214;-71
2023/12/15 11:09:28;;;;;;;11.67;5.90;;;;;;;8.15;100.00;102390.84;5006402;28;20658;-71
2023/12/15 11:12:28;;;;;;;12.57;5.70;;;;;;;8.26;100.00;102393.16;5013140;28;20207;-71
2023/12/15 11:15:04;;;;;;;9.17;4.87;;;;;;;8.26;100.00;102396.69;5014610;28;20763;-71
2023/12/15 11:17:32;;;;;;;11.47;5.07;;;;;;;8.36;100.00;102400.75;5014496;28;20213;-71